createdAt,value
2023-05-15T00:02:24.143Z,145780.78
2023-05-15T00:04:51.240Z,145784.38
2023-05-15T00:07:18.296Z,145783.19
2023-05-15T00:09:45.315Z,145784.38
2023-05-15T00:12:12.361Z,145766.16
2023-05-15T00:14:39.344Z,145825.75
2023-05-15T00:17:06.486Z,145808.72
2023-05-15T00:19:33.481Z,145845.19
2023-05-15T00:22:00.543Z,145786.84
2023-05-15T00:24:27.537Z,145817.25
2023-05-15T00:26:54.546Z,145781.97
2023-05-15T00:29:21.592Z,145836.69
2023-05-15T00:31:48.750Z,145828.16
2023-05-15T00:34:15.882Z,145803.88
2023-05-15T00:36:43.457Z,145803.88
2023-05-15T00:39:11.700Z,145740.66
2023-05-15T00:41:40.621Z,145752.81
2023-05-15T00:44:09.780Z,145737.00
2023-05-15T00:46:38.416Z,145738.19
2023-05-15T00:49:06.658Z,145745.50
2023-05-15T00:51:33.656Z,145706.59
2023-05-15T00:54:00.970Z,145794.16
2023-05-15T00:56:30.650Z,145769.81
2023-05-15T00:58:59.849Z,145806.28
2023-05-15T01:01:27.081Z,145769.81
2023-05-15T01:03:54.237Z,145713.91
2023-05-15T01:06:21.333Z,145724.84
2023-05-15T01:08:49.755Z,145761.28
2023-05-15T01:11:17.925Z,145784.38
2023-05-15T01:13:46.215Z,145756.44
2023-05-15T01:16:22.264Z,145811.13
2023-05-15T01:18:49.636Z,145812.38
2023-05-15T01:21:34.925Z,145819.66
2023-05-15T01:24:20.009Z,145818.44
2023-05-15T01:27:05.312Z,145823.31
2023-05-15T01:29:42.454Z,145800.22
2023-05-15T01:32:15.235Z,145728.50
2023-05-15T01:35:06.707Z,145799.00
2023-05-15T01:37:36.883Z,145740.66
2023-05-15T01:40:09.135Z,145689.56
2023-05-15T01:42:44.113Z,145688.31
2023-05-15T01:45:12.043Z,145721.22
2023-05-15T01:47:46.245Z,145685.91
2023-05-15T01:50:17.662Z,145668.91
2023-05-15T01:52:49.003Z,145604.50
2023-05-15T01:55:17.510Z,145640.97
2023-05-15T01:57:46.631Z,145645.81
2023-05-15T02:00:14.231Z,145623.94
2023-05-15T02:02:43.038Z,145688.31
2023-05-15T02:05:12.155Z,145693.22
2023-05-15T02:07:42.356Z,145651.88
2023-05-15T02:10:12.218Z,145699.34
2023-05-15T02:12:42.283Z,145681.06
2023-05-15T02:15:10.377Z,145653.13
2023-05-15T02:17:37.827Z,145693.22
2023-05-15T02:20:07.645Z,145676.19
2023-05-15T02:22:34.756Z,145695.63
2023-05-15T02:25:02.202Z,145606.97
2023-05-15T02:27:38.571Z,145600.84
2023-05-15T02:30:19.106Z,145671.34
2023-05-15T02:33:05.091Z,145648.28
2023-05-15T02:35:43.704Z,145642.16
2023-05-15T02:38:16.196Z,145616.69
2023-05-15T02:40:46.034Z,145645.81
2023-05-15T02:43:15.317Z,145679.84
2023-05-15T02:45:45.437Z,145672.56
2023-05-15T02:48:13.591Z,145639.75
2023-05-15T02:50:40.710Z,145623.94
2023-05-15T02:53:09.703Z,145623.94
2023-05-15T02:55:38.792Z,145593.59
2023-05-15T02:58:06.184Z,145627.59
2023-05-15T03:00:33.484Z,145617.88
2023-05-15T03:03:00.598Z,145638.56
2023-05-15T03:05:28.008Z,145599.66
2023-05-15T03:07:55.673Z,145570.50
2023-05-15T03:10:24.081Z,145602.09
2023-05-15T03:12:51.288Z,145560.75
2023-05-15T03:15:19.191Z,145526.78
2023-05-15T03:17:47.037Z,145512.19
2023-05-15T03:20:14.956Z,145543.78
2023-05-15T03:22:42.208Z,145585.09
2023-05-15T03:25:11.207Z,145512.19
2023-05-15T03:27:38.545Z,145587.50
2023-05-15T03:30:06.292Z,145497.63
2023-05-15T03:32:33.573Z,145589.94
2023-05-15T03:35:01.025Z,145560.75
2023-05-15T03:37:28.493Z,145504.91
2023-05-15T03:39:55.663Z,145548.66
2023-05-15T03:42:24.733Z,145492.78
2023-05-15T03:44:51.980Z,145507.34
2023-05-15T03:47:19.100Z,145457.56
2023-05-15T03:49:46.707Z,145491.53
2023-05-15T03:52:13.890Z,145470.91
2023-05-15T03:54:41.956Z,145485.47
2023-05-15T03:57:09.092Z,145514.59
2023-05-15T03:59:36.085Z,145489.13
2023-05-15T04:02:05.354Z,145536.47
2023-05-15T04:04:32.783Z,145515.84
2023-05-15T04:07:00.501Z,145527.97
2023-05-15T04:09:27.577Z,145524.31
2023-05-15T04:11:54.601Z,145521.91
2023-05-15T04:14:21.737Z,145455.09
2023-05-15T04:16:48.837Z,145502.50
2023-05-15T04:19:15.882Z,145456.34
2023-05-15T04:21:43.070Z,145462.41
2023-05-15T04:24:10.106Z,145534.06
2023-05-15T04:26:37.758Z,145529.22
2023-05-15T04:29:05.038Z,145504.91
2023-05-15T04:31:32.252Z,145487.88
2023-05-15T04:33:59.390Z,145517.06
2023-05-15T04:36:26.505Z,145492.78
2023-05-15T04:38:53.549Z,145502.50
2023-05-15T04:41:20.817Z,145480.63
2023-05-15T04:43:47.850Z,145487.88
2023-05-15T04:46:14.960Z,145527.97
2023-05-15T04:48:42.038Z,145451.44
2023-05-15T04:51:10.094Z,145425.97
2023-05-15T04:53:37.103Z,145529.22
2023-05-15T04:56:04.325Z,145543.78
2023-05-15T04:58:31.327Z,145495.19
2023-05-15T05:00:58.459Z,145541.34
2023-05-15T05:03:25.519Z,145551.06
2023-05-15T05:05:52.528Z,145538.94
2023-05-15T05:08:19.535Z,145546.19
2023-05-15T05:10:46.521Z,145541.34
2023-05-15T05:13:13.528Z,145466.06
2023-05-15T05:15:40.634Z,145560.75
2023-05-15T05:18:07.890Z,145583.88
2023-05-15T05:20:34.948Z,145553.50
2023-05-15T05:23:01.928Z,145577.78
2023-05-15T05:25:28.919Z,145548.66
2023-05-15T05:27:55.914Z,145475.78
2023-05-15T05:30:23.120Z,145524.31
2023-05-15T05:32:50.268Z,145513.41
2023-05-15T05:35:17.335Z,145531.63
2023-05-15T05:37:44.312Z,145507.34
2023-05-15T05:40:11.745Z,145507.34
2023-05-15T05:42:38.786Z,145562.00
2023-05-15T05:45:06.845Z,145560.75
2023-05-15T05:47:34.009Z,145549.84
2023-05-15T05:50:01.109Z,145608.16
2023-05-15T05:52:29.306Z,145537.69
2023-05-15T05:54:56.290Z,145609.38
2023-05-15T05:57:23.305Z,145647.03
2023-05-15T05:59:50.459Z,145616.69
2023-05-15T06:02:17.627Z,145672.56
2023-05-15T06:04:45.959Z,145706.59
2023-05-15T06:07:13.065Z,145740.66
2023-05-15T06:09:40.175Z,145806.28
2023-05-15T06:12:08.350Z,145783.19
2023-05-15T06:14:35.987Z,145826.97
2023-05-15T06:17:03.288Z,145833.03
2023-05-15T06:19:30.452Z,145859.78
2023-05-15T06:21:57.774Z,145842.75
2023-05-15T06:24:24.828Z,145867.09
2023-05-15T06:26:52.533Z,145879.22
2023-05-15T06:29:19.646Z,145865.84
2023-05-15T06:31:46.681Z,145871.94
2023-05-15T06:34:13.771Z,145871.94
2023-05-15T06:36:40.945Z,145825.75
2023-05-15T06:39:10.688Z,145881.66
2023-05-15T06:41:38.325Z,145791.69
2023-05-15T06:44:05.481Z,145790.50
2023-05-15T06:46:32.679Z,145816.00
2023-05-15T06:48:59.814Z,145884.06
2023-05-15T06:51:26.875Z,145818.44
2023-05-15T06:53:53.969Z,145881.66
2023-05-15T06:56:21.779Z,145913.28
2023-05-15T06:58:48.797Z,145936.38
2023-05-15T07:01:15.964Z,145941.25
2023-05-15T07:03:43.060Z,145961.91
2023-05-15T07:06:10.094Z,145895.03
2023-05-15T07:08:37.224Z,145930.28
2023-05-15T07:11:04.498Z,145918.16
2023-05-15T07:13:31.643Z,146037.31
2023-05-15T07:15:58.729Z,146034.88
2023-05-15T07:18:25.826Z,146053.13
2023-05-15T07:20:52.864Z,145987.44
2023-05-15T07:23:20.024Z,146082.38
2023-05-15T07:25:47.090Z,146015.41
2023-05-15T07:28:14.205Z,146050.72
2023-05-15T07:30:41.283Z,146088.47
2023-05-15T07:33:08.459Z,146073.81
2023-05-15T07:35:35.630Z,146154.19
2023-05-15T07:38:02.715Z,146139.56
2023-05-15T07:40:30.053Z,146112.78
2023-05-15T07:42:57.168Z,146059.22
2023-05-15T07:45:24.971Z,146139.56
2023-05-15T07:47:52.173Z,146217.44
2023-05-15T07:50:19.310Z,146224.75
2023-05-15T07:52:46.497Z,146285.59
2023-05-15T07:55:13.754Z,146324.56
2023-05-15T07:57:41.202Z,146311.19
2023-05-15T08:00:12.532Z,146381.78
2023-05-15T08:02:40.742Z,146359.88
2023-05-15T08:05:08.336Z,146397.63
2023-05-15T08:07:35.726Z,146461.00
2023-05-15T08:10:05.931Z,146409.88
2023-05-15T08:12:33.379Z,146409.88
2023-05-15T08:15:00.644Z,146387.88
2023-05-15T08:17:27.941Z,146429.34
2023-05-15T08:19:55.771Z,146451.25
2023-05-15T08:22:22.841Z,146480.47
2023-05-15T08:24:49.854Z,146468.28
2023-05-15T08:27:16.892Z,146499.94
2023-05-15T08:29:43.950Z,146612.03
2023-05-15T08:32:11.062Z,146658.34
2023-05-15T08:34:38.726Z,146694.91
2023-05-15T08:37:06.767Z,146658.34
2023-05-15T08:39:33.844Z,146714.44
2023-05-15T08:42:19.820Z,146764.41
2023-05-15T08:44:47.798Z,146747.34
2023-05-15T08:47:15.810Z,146804.66
2023-05-15T08:49:48.434Z,146765.63
2023-05-15T08:52:15.823Z,146770.50
2023-05-15T08:54:42.996Z,146713.22
2023-05-15T08:57:10.745Z,146679.03
2023-05-15T08:59:37.816Z,146651.00
2023-05-15T09:02:05.223Z,146765.63
2023-05-15T09:04:32.445Z,146863.19
2023-05-15T09:07:00.802Z,146799.78
2023-05-15T09:09:29.442Z,146764.41
2023-05-15T09:11:57.110Z,146813.19
2023-05-15T09:14:24.184Z,146892.41
2023-05-15T09:16:53.171Z,146949.75
2023-05-15T09:19:22.336Z,147077.88
2023-05-15T09:21:49.803Z,146979.00
2023-05-15T09:24:18.365Z,146974.13
2023-05-15T09:26:47.163Z,147053.44
2023-05-15T09:29:18.876Z,147099.78
2023-05-15T09:31:47.793Z,147129.09
2023-05-15T09:34:14.893Z,147121.78
2023-05-15T09:36:45.108Z,147060.78
2023-05-15T09:39:12.519Z,147146.19
2023-05-15T09:41:43.709Z,147083.97
2023-05-15T09:44:25.046Z,147243.81
2023-05-15T09:46:52.701Z,147298.78
2023-05-15T09:49:20.028Z,147235.25
2023-05-15T09:51:48.703Z,147257.28
2023-05-15T09:54:17.650Z,147275.59
2023-05-15T09:56:45.843Z,147190.09
2023-05-15T09:59:15.575Z,147175.47
2023-05-15T10:01:47.504Z,147247.53
2023-05-15T10:04:15.092Z,147181.56
2023-05-15T10:06:48.633Z,147279.28
2023-05-15T10:09:15.929Z,147379.34
2023-05-15T10:11:45.246Z,147336.63
2023-05-15T10:14:13.975Z,147396.44
2023-05-15T10:16:41.706Z,147423.31
2023-05-15T10:19:10.844Z,147448.97
2023-05-15T10:21:40.639Z,147466.03
2023-05-15T10:24:08.638Z,147450.19
2023-05-15T10:26:40.946Z,147544.25
2023-05-15T10:29:13.655Z,147568.69
2023-05-15T10:31:41.276Z,147626.09
2023-05-15T10:34:09.993Z,147629.75
2023-05-15T10:36:38.330Z,147612.66
2023-05-15T10:39:07.389Z,147739.78
2023-05-15T10:41:37.256Z,147732.47
2023-05-15T10:44:05.229Z,147712.84
2023-05-15T10:46:35.279Z,147588.22
2023-05-15T10:49:02.795Z,147535.72
2023-05-15T10:51:33.127Z,147569.91
2023-05-15T10:54:03.678Z,147517.41
2023-05-15T10:56:36.926Z,147527.16
2023-05-15T10:59:08.976Z,147605.34
2023-05-15T11:01:38.613Z,147556.47
2023-05-15T11:04:07.533Z,147585.81
2023-05-15T11:06:35.955Z,147661.53
2023-05-15T11:09:21.202Z,147825.34
2023-05-15T11:12:05.398Z,147802.13
2023-05-15T11:14:37.752Z,147739.78
2023-05-15T11:17:09.487Z,147672.53
2023-05-15T11:19:48.596Z,147632.22
2023-05-15T11:22:15.722Z,147533.25
2023-05-15T11:24:53.796Z,147451.38
2023-05-15T11:27:23.976Z,147437.94
2023-05-15T11:30:15.403Z,147386.69
2023-05-15T11:33:01.977Z,147231.59
2023-05-15T11:35:37.689Z,147044.91
2023-05-15T11:38:10.811Z,147069.31
2023-05-15T11:40:52.777Z,147004.69
2023-05-15T11:43:24.576Z,146872.91
2023-05-15T11:45:57.945Z,146982.69
2023-05-15T11:48:32.078Z,146959.50
2023-05-15T11:51:01.006Z,146926.59
2023-05-15T11:53:29.874Z,146870.47
2023-05-15T11:55:57.158Z,146872.91
2023-05-15T11:58:25.853Z,146775.41
2023-05-15T12:00:53.938Z,146716.91
2023-05-15T12:03:36.132Z,146762.00
2023-05-15T12:06:04.057Z,146707.09
2023-05-15T12:08:35.393Z,146651.00
2023-05-15T12:11:03.320Z,146668.09
2023-05-15T12:13:32.203Z,146686.38
2023-05-15T12:16:00.535Z,146660.75
2023-05-15T12:18:27.789Z,146601.06
2023-05-15T12:20:55.326Z,146564.50
2023-05-15T12:23:24.624Z,146562.09
2023-05-15T12:25:57.651Z,146560.88
2023-05-15T12:28:26.473Z,146540.16
2023-05-15T12:30:54.163Z,146470.75
2023-05-15T12:33:21.568Z,146504.81
2023-05-15T12:35:56.907Z,146468.28
2023-05-15T12:38:27.368Z,146476.81
2023-05-15T12:40:54.740Z,146471.94
2023-05-15T12:43:24.929Z,146453.66
2023-05-15T12:45:53.219Z,146468.28
2023-05-15T12:48:21.557Z,146479.28
2023-05-15T12:50:49.786Z,146426.88
2023-05-15T12:53:16.947Z,146419.59
2023-05-15T12:55:46.129Z,146350.13
2023-05-15T12:58:15.760Z,146309.97
2023-05-15T13:00:46.141Z,146358.63
2023-05-15T13:03:14.207Z,146385.44
2023-05-15T13:05:45.652Z,146358.63
2023-05-15T13:08:17.921Z,146314.84
2023-05-15T13:10:46.100Z,146373.28
2023-05-15T13:13:13.384Z,146368.38
2023-05-15T13:15:43.847Z,146359.88
2023-05-15T13:18:15.081Z,146379.34
2023-05-15T13:20:47.115Z,146391.56
2023-05-15T13:23:16.321Z,146400.03
2023-05-15T13:25:44.048Z,146300.25
2023-05-15T13:28:12.950Z,146373.28
2023-05-15T13:30:41.672Z,146298.97
2023-05-15T13:33:10.689Z,146331.84
2023-05-15T13:35:39.452Z,146331.84
2023-05-15T13:38:07.620Z,146289.25
2023-05-15T13:40:37.399Z,146234.47
2023-05-15T13:43:06.431Z,146329.44
2023-05-15T13:45:33.569Z,146334.31
2023-05-15T13:48:00.694Z,146317.25
2023-05-15T13:50:28.027Z,146255.19
2023-05-15T13:52:55.775Z,146266.13
2023-05-15T13:55:23.436Z,146268.59
2023-05-15T13:57:51.580Z,146236.94
2023-05-15T14:00:19.681Z,146204.03
2023-05-15T14:02:46.904Z,146283.19
2023-05-15T14:05:15.703Z,146271.00
2023-05-15T14:07:42.861Z,146205.28
2023-05-15T14:10:10.688Z,146256.41
2023-05-15T14:12:38.498Z,146324.56
2023-05-15T14:15:06.447Z,146381.78
2023-05-15T14:17:33.535Z,146392.75
2023-05-15T14:20:00.592Z,146336.75
2023-05-15T14:22:27.677Z,146417.13
2023-05-15T14:24:54.771Z,146486.56
2023-05-15T14:27:21.823Z,146453.66
2023-05-15T14:29:49.207Z,146457.34
2023-05-15T14:32:17.296Z,146507.28
2023-05-15T14:34:44.565Z,146482.94
2023-05-15T14:37:11.753Z,146554.75
2023-05-15T14:39:38.966Z,146490.22
2023-05-15T14:42:06.735Z,146510.94
2023-05-15T14:44:34.363Z,146526.75
2023-05-15T14:47:09.215Z,146590.09
2023-05-15T14:49:37.616Z,146652.28
2023-05-15T14:52:07.456Z,146649.81
2023-05-15T14:54:35.660Z,146652.28
2023-05-15T14:57:03.597Z,146680.28
2023-05-15T14:59:30.983Z,146587.66
2023-05-15T15:01:58.134Z,146610.84
2023-05-15T15:04:26.651Z,146623.00
2023-05-15T15:06:56.801Z,146675.41
2023-05-15T15:09:28.290Z,146694.91
2023-05-15T15:11:56.144Z,146741.25
2023-05-15T15:14:23.180Z,146699.78
2023-05-15T15:16:50.321Z,146685.16
2023-05-15T15:19:19.852Z,146712.03
2023-05-15T15:21:47.784Z,146719.31
2023-05-15T15:24:15.282Z,146724.19
2023-05-15T15:26:42.564Z,146693.69
2023-05-15T15:29:09.593Z,146686.38
2023-05-15T15:31:36.638Z,146760.75
2023-05-15T15:34:05.517Z,146743.72
2023-05-15T15:36:32.825Z,146759.53
2023-05-15T15:38:59.895Z,146733.94
2023-05-15T15:41:29.832Z,146768.06
2023-05-15T15:43:56.843Z,146909.50
2023-05-15T15:46:24.071Z,146936.34
2023-05-15T15:48:51.252Z,146976.59
2023-05-15T15:51:18.361Z,146950.97
2023-05-15T15:53:45.471Z,146931.47
2023-05-15T15:56:12.554Z,146848.56
2023-05-15T15:58:39.602Z,146897.28
2023-05-15T16:01:06.655Z,146870.47
2023-05-15T16:03:33.771Z,147182.81
2023-05-15T16:06:00.870Z,147419.63
2023-05-15T16:08:28.003Z,147752.03
2023-05-15T16:10:55.076Z,147947.63
2023-05-15T16:13:22.292Z,148074.81
2023-05-15T16:15:49.322Z,147991.66
2023-05-15T16:18:16.681Z,148035.72
2023-05-15T16:20:43.827Z,148202.09
2023-05-15T16:23:14.197Z,147945.22
2023-05-15T16:25:42.522Z,148122.56
2023-05-15T16:28:10.207Z,148013.69
2023-05-15T16:30:48.224Z,148065.03
2023-05-15T16:33:18.002Z,148083.38
2023-05-15T16:35:45.931Z,147989.25
2023-05-15T16:38:13.702Z,147700.66
2023-05-15T16:40:41.169Z,147477.06
2023-05-15T16:43:08.370Z,147219.41
2023-05-15T16:45:35.676Z,147021.72
2023-05-15T16:48:03.330Z,146902.16
2023-05-15T16:50:36.312Z,146874.13
2023-05-15T16:53:04.284Z,146821.72
2023-05-15T16:55:32.321Z,146777.81
2023-05-15T16:57:59.333Z,146766.88
2023-05-15T17:00:26.922Z,146760.75
2023-05-15T17:02:54.770Z,146751.00
2023-05-15T17:05:22.046Z,146893.63
2023-05-15T17:07:49.239Z,146885.13
2023-05-15T17:10:16.460Z,147141.28
2023-05-15T17:12:43.832Z,147259.72
2023-05-15T17:15:11.511Z,147136.41
2023-05-15T17:17:45.914Z,147048.56
2023-05-15T17:20:12.962Z,146920.47
2023-05-15T17:22:39.996Z,146827.81
2023-05-15T17:25:07.310Z,146855.84
2023-05-15T17:27:41.069Z,146814.41
2023-05-15T17:30:10.384Z,146946.09
2023-05-15T17:32:38.749Z,147273.13
2023-05-15T17:35:06.409Z,147527.16
2023-05-15T17:37:33.872Z,147678.66
2023-05-15T17:40:00.993Z,147506.38
2023-05-15T17:42:30.820Z,147304.88
2023-05-15T17:44:57.912Z,147202.31
2023-05-15T17:47:25.232Z,147118.09
2023-05-15T17:49:52.291Z,146986.34
2023-05-15T17:52:19.353Z,146929.00
2023-05-15T17:54:46.409Z,146909.50
2023-05-15T17:57:13.498Z,146832.69
2023-05-15T17:59:40.624Z,146848.56
2023-05-15T18:02:07.725Z,146853.44
2023-05-15T18:04:34.811Z,146807.06
2023-05-15T18:07:01.837Z,146841.22
2023-05-15T18:09:29.490Z,146894.88
2023-05-15T18:11:56.569Z,146854.63
2023-05-15T18:14:23.598Z,146843.63
2023-05-15T18:16:50.941Z,146787.56
2023-05-15T18:19:18.221Z,146769.28
2023-05-15T18:21:45.343Z,146736.38
2023-05-15T18:24:12.544Z,146718.09
2023-05-15T18:26:39.619Z,146702.22
2023-05-15T18:29:06.744Z,146621.78
2023-05-15T18:31:33.825Z,146599.84
2023-05-15T18:34:01.109Z,146559.63
2023-05-15T18:36:28.126Z,146568.16
2023-05-15T18:38:55.159Z,146461.00
2023-05-15T18:41:23.012Z,146357.44
2023-05-15T18:43:50.060Z,146345.25
2023-05-15T18:46:17.752Z,146324.56
2023-05-15T18:48:44.887Z,146376.91
2023-05-15T18:51:12.566Z,146288.03
2023-05-15T18:53:39.568Z,146278.31
2023-05-15T18:56:06.687Z,146249.06
2023-05-15T18:58:34.661Z,146202.84
2023-05-15T19:01:02.613Z,146224.75
2023-05-15T19:03:29.800Z,146244.22
2023-05-15T19:05:57.327Z,146154.19
2023-05-15T19:08:24.345Z,146204.03
2023-05-15T19:10:52.246Z,146232.06
2023-05-15T19:13:19.304Z,146193.09
2023-05-15T19:15:52.904Z,146194.31
2023-05-15T19:18:20.256Z,146207.69
2023-05-15T19:20:50.341Z,146166.31
2023-05-15T19:23:17.698Z,146132.28
2023-05-15T19:25:45.069Z,146140.81
2023-05-15T19:28:12.953Z,146127.41
2023-05-15T19:30:40.163Z,146066.50
2023-05-15T19:33:07.395Z,146100.63
2023-05-15T19:35:37.216Z,146105.50
2023-05-15T19:38:04.791Z,146082.38
2023-05-15T19:40:31.861Z,146054.38
2023-05-15T19:42:58.866Z,145987.44
2023-05-15T19:45:25.986Z,146088.47
2023-05-15T19:47:53.030Z,146065.31
2023-05-15T19:50:20.299Z,146076.28
2023-05-15T19:52:47.536Z,146056.78
2023-05-15T19:55:14.665Z,146003.25
2023-05-15T19:57:44.772Z,146075.03
2023-05-15T20:00:12.627Z,146047.06
2023-05-15T20:02:41.237Z,146081.19
2023-05-15T20:05:09.129Z,146034.88
2023-05-15T20:07:36.430Z,146032.47
2023-05-15T20:10:03.905Z,146008.16
2023-05-15T20:12:31.192Z,146005.69
2023-05-15T20:14:58.232Z,146061.63
2023-05-15T20:17:25.460Z,146064.09
2023-05-15T20:19:52.998Z,146070.16
2023-05-15T20:22:20.268Z,146062.91
2023-05-15T20:24:48.099Z,146032.47
2023-05-15T20:27:15.239Z,146072.63
2023-05-15T20:29:42.293Z,146010.56
2023-05-15T20:32:09.567Z,146068.97
2023-05-15T20:34:36.858Z,146033.66
2023-05-15T20:37:04.051Z,145995.97
2023-05-15T20:39:31.481Z,146039.75
2023-05-15T20:41:58.591Z,145988.66
2023-05-15T20:44:25.647Z,146003.25
2023-05-15T20:46:52.657Z,145963.16
2023-05-15T20:49:19.750Z,146039.75
2023-05-15T20:51:48.538Z,145994.78
2023-05-15T20:54:16.104Z,146051.91
2023-05-15T20:56:43.130Z,146039.75
2023-05-15T20:59:10.668Z,145943.66
2023-05-15T21:01:37.977Z,145957.03
2023-05-15T21:04:05.441Z,145997.19
2023-05-15T21:06:32.723Z,145993.53
2023-05-15T21:08:59.873Z,145998.38
2023-05-15T21:11:27.785Z,146005.69
2023-05-15T21:13:54.790Z,146019.09
2023-05-15T21:16:22.027Z,146000.84
2023-05-15T21:18:49.203Z,145972.88
2023-05-15T21:21:16.499Z,145943.66
2023-05-15T21:23:43.561Z,145969.22
2023-05-15T21:26:11.074Z,146020.28
2023-05-15T21:28:38.114Z,145988.66
2023-05-15T21:31:09.188Z,145993.53
2023-05-15T21:33:36.836Z,145963.16
2023-05-15T21:36:04.780Z,145964.34
2023-05-15T21:38:32.638Z,145974.06
2023-05-15T21:40:59.694Z,145910.84
2023-05-15T21:43:26.875Z,145949.78
2023-05-15T21:45:57.051Z,145926.66
2023-05-15T21:48:24.123Z,145940.03
2023-05-15T21:50:55.245Z,145924.22
2023-05-15T21:53:23.013Z,145940.03
2023-05-15T21:55:51.977Z,145927.88
2023-05-15T21:58:19.013Z,145940.03
2023-05-15T22:00:46.145Z,145971.66
2023-05-15T22:03:13.253Z,145908.44
2023-05-15T22:05:40.336Z,145944.91
2023-05-15T22:08:07.383Z,145976.53
2023-05-15T22:10:34.411Z,145969.22
2023-05-15T22:13:04.139Z,145995.97
2023-05-15T22:15:31.182Z,145999.63
2023-05-15T22:18:00.332Z,145982.59
2023-05-15T22:20:28.911Z,145935.19
2023-05-15T22:22:56.087Z,145971.66
2023-05-15T22:25:23.247Z,145993.53
2023-05-15T22:27:50.579Z,145982.59
2023-05-15T22:30:17.612Z,145954.63
2023-05-15T22:32:45.171Z,145944.91
2023-05-15T22:35:13.168Z,145876.81
2023-05-15T22:37:41.928Z,145961.91
2023-05-15T22:40:12.531Z,145915.69
2023-05-15T22:42:39.577Z,145915.69
2023-05-15T22:45:07.523Z,145944.91
2023-05-15T22:47:34.626Z,145916.94
2023-05-15T22:50:01.753Z,145920.56
2023-05-15T22:52:28.835Z,145921.81
2023-05-15T22:54:55.940Z,145950.97
2023-05-15T22:57:23.067Z,145948.50
2023-05-15T22:59:50.174Z,145901.09
2023-05-15T23:02:17.328Z,145893.78
2023-05-15T23:04:44.473Z,145897.44
2023-05-15T23:07:11.487Z,145901.09
2023-05-15T23:09:38.552Z,145908.44
2023-05-15T23:12:06.359Z,145891.38
2023-05-15T23:14:34.223Z,145891.38
2023-05-15T23:17:01.243Z,145890.19
2023-05-15T23:19:28.231Z,145895.03
2023-05-15T23:21:55.689Z,145887.72
2023-05-15T23:24:22.886Z,145915.69
2023-05-15T23:26:49.948Z,145943.66
2023-05-15T23:29:17.021Z,145933.94
2023-05-15T23:31:44.113Z,145954.63
2023-05-15T23:34:11.159Z,145961.91
2023-05-15T23:36:38.185Z,145927.88
2023-05-15T23:39:05.324Z,145983.81
2023-05-15T23:41:32.308Z,145981.38
2023-05-15T23:43:59.393Z,145909.63
2023-05-15T23:46:26.475Z,145988.66
2023-05-15T23:48:53.511Z,145878.00
2023-05-15T23:51:20.698Z,145959.50
2023-05-15T23:53:49.353Z,145974.06
2023-05-15T23:56:16.419Z,145988.66
2023-05-15T23:58:43.449Z,145983.81
